sensor_id;sensor_type;location;lat;lon;timestamp;P1;durP1;ratioP1;P2;durP2;ratioP2
51927;SDS011;37953;52.806;18.270;2024-01-15T00:00:56;20.15;;;8.65;;
51927;SDS011;37953;52.806;18.270;2024-01-15T00:03:42;17.83;;;8.38;;
51927;SDS011;37953;52.806;18.270;2024-01-15T00:06:07;16.27;;;7.55;;
51927;SDS011;37953;52.806;18.270;2024-01-15T00:08:40;19.02;;;8.73;;
51927;SDS011;37953;52.806;18.270;2024-01-15T00:11:05;16.40;;;7.80;;
51927;SDS011;37953;52.806;18.270;2024-01-15T00:13:31;15.98;;;8.07;;
51927;SDS011;37953;52.806;18.270;2024-01-15T00:15:57;18.02;;;8.70;;
51927;SDS011;37953;52.806;18.270;2024-01-15T00:18:23;15.85;;;8.23;;
51927;SDS011;37953;52.806;18.270;2024-01-15T00:20:49;15.90;;;7.82;;
51927;SDS011;37953;52.806;18.270;2024-01-15T00:23:15;20.27;;;7.90;;
51927;SDS011;37953;52.806;18.270;2024-01-15T00:25:41;15.82;;;7.63;;
51927;SDS011;37953;52.806;18.270;2024-01-15T00:28:07;17.00;;;8.25;;
51927;SDS011;37953;52.806;18.270;2024-01-15T00:30:33;16.05;;;8.38;;
51927;SDS011;37953;52.806;18.270;2024-01-15T00:32:59;16.33;;;8.07;;
51927;SDS011;37953;52.806;18.270;2024-01-15T00:35:25;18.17;;;8.85;;
51927;SDS011;37953;52.806;18.270;2024-01-15T00:37:51;18.63;;;8.52;;
51927;SDS011;37953;52.806;18.270;2024-01-15T00:40:17;14.05;;;7.63;;
51927;SDS011;37953;52.806;18.270;2024-01-15T00:42:43;14.20;;;7.40;;
51927;SDS011;37953;52.806;18.270;2024-01-15T00:45:09;19.85;;;8.50;;
51927;SDS011;37953;52.806;18.270;2024-01-15T00:47:35;16.50;;;7.43;;
51927;SDS011;37953;52.806;18.270;2024-01-15T00:50:01;14.70;;;7.93;;
51927;SDS011;37953;52.806;18.270;2024-01-15T00:52:27;13.77;;;7.60;;
51927;SDS011;37953;52.806;18.270;2024-01-15T00:54:53;17.00;;;8.20;;
51927;SDS011;37953;52.806;18.270;2024-01-15T00:57:19;15.20;;;7.80;;
51927;SDS011;37953;52.806;18.270;2024-01-15T00:59:45;14.02;;;7.60;;
51927;SDS011;37953;52.806;18.270;2024-01-15T01:02:17;18.00;;;7.75;;
51927;SDS011;37953;52.806;18.270;2024-01-15T01:04:42;15.30;;;7.75;;
51927;SDS011;37953;52.806;18.270;2024-01-15T01:07:08;16.67;;;8.68;;
51927;SDS011;37953;52.806;18.270;2024-01-15T01:09:34;17.77;;;8.00;;
51927;SDS011;37953;52.806;18.270;2024-01-15T01:12:00;19.95;;;8.20;;
51927;SDS011;37953;52.806;18.270;2024-01-15T01:14:26;16.63;;;8.05;;
51927;SDS011;37953;52.806;18.270;2024-01-15T01:16:52;15.27;;;7.15;;
51927;SDS011;37953;52.806;18.270;2024-01-15T01:19:18;16.42;;;7.57;;
51927;SDS011;37953;52.806;18.270;2024-01-15T01:21:44;14.75;;;7.68;;
51927;SDS011;37953;52.806;18.270;2024-01-15T01:24:10;23.15;;;7.80;;
51927;SDS011;37953;52.806;18.270;2024-01-15T01:26:38;16.80;;;8.30;;
51927;SDS011;37953;52.806;18.270;2024-01-15T01:29:04;15.43;;;7.70;;
51927;SDS011;37953;52.806;18.270;2024-01-15T01:31:30;15.27;;;7.40;;
51927;SDS011;37953;52.806;18.270;2024-01-15T01:33:56;15.55;;;7.55;;
51927;SDS011;37953;52.806;18.270;2024-01-15T01:36:22;13.93;;;7.07;;
51927;SDS011;37953;52.806;18.270;2024-01-15T01:38:47;12.80;;;7.38;;
51927;SDS011;37953;52.806;18.270;2024-01-15T01:41:13;18.58;;;8.25;;
51927;SDS011;37953;52.806;18.270;2024-01-15T01:43:40;14.52;;;7.80;;
51927;SDS011;37953;52.806;18.270;2024-01-15T01:46:06;16.25;;;7.32;;
51927;SDS011;37953;52.806;18.270;2024-01-15T01:48:32;12.13;;;6.70;;
51927;SDS011;37953;52.806;18.270;2024-01-15T01:50:59;14.38;;;7.00;;
51927;SDS011;37953;52.806;18.270;2024-01-15T01:53:28;12.68;;;6.72;;
51927;SDS011;37953;52.806;18.270;2024-01-15T01:55:56;13.20;;;7.60;;
51927;SDS011;37953;52.806;18.270;2024-01-15T01:58:22;13.95;;;6.80;;
51927;SDS011;37953;52.806;18.270;2024-01-15T02:00:50;13.63;;;6.82;;
51927;SDS011;37953;52.806;18.270;2024-01-15T02:03:16;13.45;;;6.90;;
51927;SDS011;37953;52.806;18.270;2024-01-15T02:05:43;10.50;;;5.82;;
51927;SDS011;37953;52.806;18.270;2024-01-15T02:08:10;11.70;;;6.43;;
51927;SDS011;37953;52.806;18.270;2024-01-15T02:10:36;13.30;;;6.45;;
51927;SDS011;37953;52.806;18.270;2024-01-15T02:13:02;14.23;;;6.40;;
51927;SDS011;37953;52.806;18.270;2024-01-15T02:15:28;11.77;;;6.65;;
51927;SDS011;37953;52.806;18.270;2024-01-15T02:17:58;13.88;;;6.82;;
51927;SDS011;37953;52.806;18.270;2024-01-15T02:20:24;13.88;;;6.57;;
51927;SDS011;37953;52.806;18.270;2024-01-15T02:22:51;12.68;;;5.78;;
51927;SDS011;37953;52.806;18.270;2024-01-15T02:25:17;11.60;;;6.25;;
51927;SDS011;37953;52.806;18.270;2024-01-15T02:27:44;11.07;;;5.78;;
51927;SDS011;37953;52.806;18.270;2024-01-15T02:30:13;18.65;;;6.45;;
51927;SDS011;37953;52.806;18.270;2024-01-15T02:32:39;13.85;;;6.10;;
51927;SDS011;37953;52.806;18.270;2024-01-15T02:35:05;21.95;;;7.03;;
51927;SDS011;37953;52.806;18.270;2024-01-15T02:37:31;14.23;;;7.40;;
51927;SDS011;37953;52.806;18.270;2024-01-15T02:39:57;13.77;;;6.78;;
51927;SDS011;37953;52.806;18.270;2024-01-15T02:42:23;11.20;;;6.68;;
51927;SDS011;37953;52.806;18.270;2024-01-15T02:44:49;13.25;;;7.00;;
51927;SDS011;37953;52.806;18.270;2024-01-15T02:47:15;14.30;;;7.10;;
51927;SDS011;37953;52.806;18.270;2024-01-15T02:49:41;11.65;;;6.80;;
51927;SDS011;37953;52.806;18.270;2024-01-15T02:52:07;20.52;;;7.00;;
51927;SDS011;37953;52.806;18.270;2024-01-15T02:54:32;15.55;;;7.53;;
51927;SDS011;37953;52.806;18.270;2024-01-15T02:56:58;17.25;;;7.78;;
51927;SDS011;37953;52.806;18.270;2024-01-15T02:59:24;17.15;;;8.55;;
51927;SDS011;37953;52.806;18.270;2024-01-15T03:01:50;13.45;;;7.55;;
51927;SDS011;37953;52.806;18.270;2024-01-15T03:04:16;14.57;;;6.85;;
51927;SDS011;37953;52.806;18.270;2024-01-15T03:06:42;14.00;;;6.95;;
51927;SDS011;37953;52.806;18.270;2024-01-15T03:09:08;15.95;;;7.57;;
51927;SDS011;37953;52.806;18.270;2024-01-15T03:11:40;17.10;;;7.80;;
51927;SDS011;37953;52.806;18.270;2024-01-15T03:14:06;14.07;;;7.28;;
51927;SDS011;37953;52.806;18.270;2024-01-15T03:16:32;14.18;;;6.93;;
51927;SDS011;37953;52.806;18.270;2024-01-15T03:18:58;16.95;;;7.53;;
51927;SDS011;37953;52.806;18.270;2024-01-15T03:21:24;18.65;;;7.45;;
51927;SDS011;37953;52.806;18.270;2024-01-15T03:23:50;22.15;;;7.28;;
51927;SDS011;37953;52.806;18.270;2024-01-15T03:26:16;14.13;;;7.38;;
51927;SDS011;37953;52.806;18.270;2024-01-15T03:28:41;13.60;;;6.82;;
51927;SDS011;37953;52.806;18.270;2024-01-15T03:31:07;15.52;;;7.15;;
51927;SDS011;37953;52.806;18.270;2024-01-15T03:33:33;14.23;;;7.32;;
51927;SDS011;37953;52.806;18.270;2024-01-15T03:36:05;15.13;;;7.15;;
51927;SDS011;37953;52.806;18.270;2024-01-15T03:38:32;18.90;;;7.80;;
51927;SDS011;37953;52.806;18.270;2024-01-15T03:40:58;14.50;;;7.00;;
51927;SDS011;37953;52.806;18.270;2024-01-15T03:43:23;17.48;;;8.13;;
51927;SDS011;37953;52.806;18.270;2024-01-15T03:45:49;28.55;;;7.45;;
51927;SDS011;37953;52.806;18.270;2024-01-15T03:48:15;14.75;;;7.28;;
51927;SDS011;37953;52.806;18.270;2024-01-15T03:50:41;12.20;;;6.75;;
51927;SDS011;37953;52.806;18.270;2024-01-15T03:53:07;14.48;;;7.47;;
51927;SDS011;37953;52.806;18.270;2024-01-15T03:55:33;16.23;;;7.53;;
51927;SDS011;37953;52.806;18.270;2024-01-15T03:57:59;15.80;;;7.72;;
51927;SDS011;37953;52.806;18.270;2024-01-15T04:00:25;14.20;;;7.43;;
51927;SDS011;37953;52.806;18.270;2024-01-15T04:02:51;14.52;;;7.13;;
51927;SDS011;37953;52.806;18.270;2024-01-15T04:05:17;18.83;;;8.85;;
51927;SDS011;37953;52.806;18.270;2024-01-15T04:07:42;16.38;;;7.97;;
51927;SDS011;37953;52.806;18.270;2024-01-15T04:10:08;18.48;;;8.43;;
51927;SDS011;37953;52.806;18.270;2024-01-15T04:12:34;19.70;;;8.82;;
51927;SDS011;37953;52.806;18.270;2024-01-15T04:15:00;16.88;;;7.82;;
51927;SDS011;37953;52.806;18.270;2024-01-15T04:17:26;16.65;;;7.47;;
51927;SDS011;37953;52.806;18.270;2024-01-15T04:19:53;18.80;;;8.25;;
51927;SDS011;37953;52.806;18.270;2024-01-15T04:22:18;18.48;;;7.75;;
51927;SDS011;37953;52.806;18.270;2024-01-15T04:24:44;18.85;;;8.07;;
51927;SDS011;37953;52.806;18.270;2024-01-15T04:27:10;21.42;;;7.13;;
51927;SDS011;37953;52.806;18.270;2024-01-15T04:29:39;17.77;;;7.90;;
51927;SDS011;37953;52.806;18.270;2024-01-15T04:32:05;16.17;;;7.60;;
51927;SDS011;37953;52.806;18.270;2024-01-15T04:34:31;14.23;;;7.38;;
51927;SDS011;37953;52.806;18.270;2024-01-15T04:36:57;21.08;;;8.57;;
51927;SDS011;37953;52.806;18.270;2024-01-15T04:39:23;22.52;;;7.93;;
51927;SDS011;37953;52.806;18.270;2024-01-15T04:41:49;21.15;;;8.05;;
51927;SDS011;37953;52.806;18.270;2024-01-15T04:44:15;23.55;;;8.60;;
51927;SDS011;37953;52.806;18.270;2024-01-15T04:46:41;16.48;;;8.32;;
51927;SDS011;37953;52.806;18.270;2024-01-15T04:49:09;14.10;;;7.65;;
51927;SDS011;37953;52.806;18.270;2024-01-15T04:51:35;16.73;;;8.05;;
51927;SDS011;37953;52.806;18.270;2024-01-15T04:54:02;17.83;;;8.55;;
51927;SDS011;37953;52.806;18.270;2024-01-15T04:56:27;16.95;;;7.60;;
51927;SDS011;37953;52.806;18.270;2024-01-15T04:58:53;17.27;;;7.93;;
51927;SDS011;37953;52.806;18.270;2024-01-15T05:01:25;19.15;;;7.93;;
51927;SDS011;37953;52.806;18.270;2024-01-15T05:03:56;20.27;;;7.47;;
51927;SDS011;37953;52.806;18.270;2024-01-15T05:06:22;18.00;;;7.55;;
51927;SDS011;37953;52.806;18.270;2024-01-15T05:08:48;13.20;;;6.80;;
51927;SDS011;37953;52.806;18.270;2024-01-15T05:11:14;16.05;;;7.32;;
51927;SDS011;37953;52.806;18.270;2024-01-15T05:13:40;11.25;;;5.97;;
51927;SDS011;37953;52.806;18.270;2024-01-15T05:16:06;14.65;;;6.60;;
51927;SDS011;37953;52.806;18.270;2024-01-15T05:18:33;11.73;;;6.03;;
51927;SDS011;37953;52.806;18.270;2024-01-15T05:20:58;15.52;;;6.60;;
51927;SDS011;37953;52.806;18.270;2024-01-15T05:23:25;15.50;;;6.78;;
51927;SDS011;37953;52.806;18.270;2024-01-15T05:25:50;19.40;;;6.80;;
51927;SDS011;37953;52.806;18.270;2024-01-15T05:28:17;12.43;;;5.82;;
51927;SDS011;37953;52.806;18.270;2024-01-15T05:30:42;11.82;;;5.90;;
51927;SDS011;37953;52.806;18.270;2024-01-15T05:33:08;18.88;;;6.10;;
51927;SDS011;37953;52.806;18.270;2024-01-15T05:35:34;21.95;;;7.05;;
51927;SDS011;37953;52.806;18.270;2024-01-15T05:38:00;13.20;;;5.25;;
51927;SDS011;37953;52.806;18.270;2024-01-15T05:40:26;12.45;;;5.95;;
51927;SDS011;37953;52.806;18.270;2024-01-15T05:42:52;9.10;;;4.38;;
51927;SDS011;37953;52.806;18.270;2024-01-15T05:45:18;14.88;;;5.03;;
51927;SDS011;37953;52.806;18.270;2024-01-15T05:47:44;11.68;;;5.35;;
51927;SDS011;37953;52.806;18.270;2024-01-15T05:50:10;9.82;;;5.30;;
51927;SDS011;37953;52.806;18.270;2024-01-15T05:52:36;13.20;;;5.28;;
51927;SDS011;37953;52.806;18.270;2024-01-15T05:55:02;12.05;;;5.20;;
51927;SDS011;37953;52.806;18.270;2024-01-15T05:57:28;13.68;;;5.43;;
51927;SDS011;37953;52.806;18.270;2024-01-15T05:59:54;12.80;;;4.60;;
51927;SDS011;37953;52.806;18.270;2024-01-15T06:02:20;11.55;;;4.75;;
51927;SDS011;37953;52.806;18.270;2024-01-15T06:04:46;11.02;;;4.70;;
51927;SDS011;37953;52.806;18.270;2024-01-15T06:07:12;12.68;;;4.47;;
51927;SDS011;37953;52.806;18.270;2024-01-15T06:09:38;10.20;;;4.25;;
51927;SDS011;37953;52.806;18.270;2024-01-15T06:12:05;11.07;;;4.03;;
51927;SDS011;37953;52.806;18.270;2024-01-15T06:14:32;10.80;;;3.53;;
51927;SDS011;37953;52.806;18.270;2024-01-15T06:16:58;11.80;;;3.53;;
51927;SDS011;37953;52.806;18.270;2024-01-15T06:19:24;13.73;;;4.28;;
51927;SDS011;37953;52.806;18.270;2024-01-15T06:21:50;12.50;;;4.30;;
51927;SDS011;37953;52.806;18.270;2024-01-15T06:24:16;11.10;;;4.05;;
51927;SDS011;37953;52.806;18.270;2024-01-15T06:26:43;9.40;;;3.58;;
51927;SDS011;37953;52.806;18.270;2024-01-15T06:29:09;9.02;;;3.72;;
51927;SDS011;37953;52.806;18.270;2024-01-15T06:31:35;9.70;;;3.67;;
51927;SDS011;37953;52.806;18.270;2024-01-15T06:34:01;7.47;;;3.45;;
51927;SDS011;37953;52.806;18.270;2024-01-15T06:36:27;8.35;;;3.45;;
51927;SDS011;37953;52.806;18.270;2024-01-15T06:38:52;10.52;;;3.25;;
51927;SDS011;37953;52.806;18.270;2024-01-15T06:41:18;9.00;;;3.42;;
51927;SDS011;37953;52.806;18.270;2024-01-15T06:43:44;11.75;;;4.18;;
51927;SDS011;37953;52.806;18.270;2024-01-15T06:46:10;11.10;;;3.72;;
51927;SDS011;37953;52.806;18.270;2024-01-15T06:48:36;13.50;;;4.10;;
51927;SDS011;37953;52.806;18.270;2024-01-15T06:51:02;15.52;;;4.30;;
51927;SDS011;37953;52.806;18.270;2024-01-15T06:53:28;15.20;;;4.28;;
51927;SDS011;37953;52.806;18.270;2024-01-15T06:55:54;16.55;;;5.47;;
51927;SDS011;37953;52.806;18.270;2024-01-15T06:58:20;16.98;;;5.28;;
51927;SDS011;37953;52.806;18.270;2024-01-15T07:00:46;14.55;;;4.90;;
51927;SDS011;37953;52.806;18.270;2024-01-15T07:03:12;21.23;;;6.55;;
51927;SDS011;37953;52.806;18.270;2024-01-15T07:05:38;16.42;;;5.22;;
51927;SDS011;37953;52.806;18.270;2024-01-15T07:08:04;15.23;;;5.18;;
51927;SDS011;37953;52.806;18.270;2024-01-15T07:10:30;13.48;;;4.80;;
51927;SDS011;37953;52.806;18.270;2024-01-15T07:12:56;13.82;;;4.50;;
51927;SDS011;37953;52.806;18.270;2024-01-15T07:15:22;15.55;;;4.47;;
51927;SDS011;37953;52.806;18.270;2024-01-15T07:17:48;10.68;;;3.78;;
51927;SDS011;37953;52.806;18.270;2024-01-15T07:20:14;12.77;;;3.92;;
51927;SDS011;37953;52.806;18.270;2024-01-15T07:22:40;10.25;;;4.13;;
51927;SDS011;37953;52.806;18.270;2024-01-15T07:25:07;14.23;;;5.50;;
51927;SDS011;37953;52.806;18.270;2024-01-15T07:27:33;19.23;;;6.65;;
51927;SDS011;37953;52.806;18.270;2024-01-15T07:29:59;25.70;;;8.00;;
51927;SDS011;37953;52.806;18.270;2024-01-15T07:32:25;22.30;;;7.35;;
51927;SDS011;37953;52.806;18.270;2024-01-15T07:34:51;16.50;;;5.80;;
51927;SDS011;37953;52.806;18.270;2024-01-15T07:37:17;18.88;;;6.55;;
51927;SDS011;37953;52.806;18.270;2024-01-15T07:39:43;31.65;;;8.75;;
51927;SDS011;37953;52.806;18.270;2024-01-15T07:42:08;20.85;;;7.15;;
51927;SDS011;37953;52.806;18.270;2024-01-15T07:44:34;17.92;;;6.80;;
51927;SDS011;37953;52.806;18.270;2024-01-15T07:47:00;15.20;;;5.40;;
51927;SDS011;37953;52.806;18.270;2024-01-15T07:49:26;12.90;;;5.20;;
51927;SDS011;37953;52.806;18.270;2024-01-15T07:51:52;12.35;;;5.40;;
51927;SDS011;37953;52.806;18.270;2024-01-15T07:54:18;19.75;;;4.50;;
51927;SDS011;37953;52.806;18.270;2024-01-15T07:56:56;12.65;;;4.70;;
51927;SDS011;37953;52.806;18.270;2024-01-15T07:59:23;18.77;;;5.90;;
51927;SDS011;37953;52.806;18.270;2024-01-15T08:01:55;23.73;;;7.38;;
51927;SDS011;37953;52.806;18.270;2024-01-15T08:04:21;38.75;;;9.60;;
51927;SDS011;37953;52.806;18.270;2024-01-15T08:06:50;31.88;;;10.20;;
51927;SDS011;37953;52.806;18.270;2024-01-15T08:09:16;25.65;;;8.43;;
51927;SDS011;37953;52.806;18.270;2024-01-15T08:11:42;24.52;;;8.15;;
51927;SDS011;37953;52.806;18.270;2024-01-15T08:14:08;26.17;;;6.88;;
51927;SDS011;37953;52.806;18.270;2024-01-15T08:16:35;21.30;;;7.25;;
51927;SDS011;37953;52.806;18.270;2024-01-15T08:19:02;15.85;;;6.47;;
51927;SDS011;37953;52.806;18.270;2024-01-15T08:21:28;18.55;;;5.95;;
51927;SDS011;37953;52.806;18.270;2024-01-15T08:23:58;22.25;;;8.05;;
51927;SDS011;37953;52.806;18.270;2024-01-15T08:26:25;10.32;;;5.25;;
51927;SDS011;37953;52.806;18.270;2024-01-15T08:28:51;19.15;;;4.85;;
51927;SDS011;37953;52.806;18.270;2024-01-15T08:31:17;10.60;;;4.90;;
51927;SDS011;37953;52.806;18.270;2024-01-15T08:33:43;17.98;;;6.28;;
51927;SDS011;37953;52.806;18.270;2024-01-15T08:36:09;12.35;;;5.13;;
51927;SDS011;37953;52.806;18.270;2024-01-15T08:38:35;14.82;;;5.50;;
51927;SDS011;37953;52.806;18.270;2024-01-15T08:41:01;11.32;;;4.57;;
51927;SDS011;37953;52.806;18.270;2024-01-15T08:43:27;11.35;;;4.90;;
51927;SDS011;37953;52.806;18.270;2024-01-15T08:45:53;16.77;;;4.88;;
51927;SDS011;37953;52.806;18.270;2024-01-15T08:48:19;12.20;;;4.68;;
51927;SDS011;37953;52.806;18.270;2024-01-15T08:50:45;16.50;;;5.82;;
51927;SDS011;37953;52.806;18.270;2024-01-15T08:53:12;12.57;;;5.28;;
51927;SDS011;37953;52.806;18.270;2024-01-15T08:55:38;24.80;;;11.70;;
51927;SDS011;37953;52.806;18.270;2024-01-15T08:58:04;13.63;;;6.20;;
51927;SDS011;37953;52.806;18.270;2024-01-15T09:00:31;14.75;;;5.35;;
51927;SDS011;37953;52.806;18.270;2024-01-15T09:02:57;14.60;;;5.35;;
51927;SDS011;37953;52.806;18.270;2024-01-15T09:05:23;16.80;;;5.75;;
51927;SDS011;37953;52.806;18.270;2024-01-15T09:07:49;13.68;;;5.10;;
51927;SDS011;37953;52.806;18.270;2024-01-15T09:10:21;21.40;;;6.15;;
51927;SDS011;37953;52.806;18.270;2024-01-15T09:12:47;13.65;;;5.57;;
51927;SDS011;37953;52.806;18.270;2024-01-15T09:15:14;20.17;;;5.57;;
51927;SDS011;37953;52.806;18.270;2024-01-15T09:17:40;12.50;;;5.40;;
51927;SDS011;37953;52.806;18.270;2024-01-15T09:20:13;14.38;;;5.68;;
51927;SDS011;37953;52.806;18.270;2024-01-15T09:22:38;14.55;;;5.70;;
51927;SDS011;37953;52.806;18.270;2024-01-15T09:25:07;13.23;;;5.47;;
51927;SDS011;37953;52.806;18.270;2024-01-15T09:27:35;13.75;;;5.45;;
51927;SDS011;37953;52.806;18.270;2024-01-15T09:30:02;16.02;;;5.30;;
51927;SDS011;37953;52.806;18.270;2024-01-15T09:32:28;17.70;;;6.40;;
51927;SDS011;37953;52.806;18.270;2024-01-15T09:34:54;13.27;;;5.75;;
51927;SDS011;37953;52.806;18.270;2024-01-15T09:37:20;13.75;;;5.53;;
51927;SDS011;37953;52.806;18.270;2024-01-15T09:39:46;23.67;;;5.80;;
51927;SDS011;37953;52.806;18.270;2024-01-15T09:42:13;13.43;;;5.22;;
51927;SDS011;37953;52.806;18.270;2024-01-15T09:44:40;14.77;;;5.07;;
51927;SDS011;37953;52.806;18.270;2024-01-15T09:47:06;18.13;;;6.15;;
51927;SDS011;37953;52.806;18.270;2024-01-15T09:49:33;15.20;;;6.43;;
51927;SDS011;37953;52.806;18.270;2024-01-15T09:51:59;13.45;;;4.88;;
51927;SDS011;37953;52.806;18.270;2024-01-15T09:54:26;15.10;;;5.88;;
51927;SDS011;37953;52.806;18.270;2024-01-15T09:56:53;15.68;;;5.35;;
51927;SDS011;37953;52.806;18.270;2024-01-15T09:59:20;21.48;;;6.30;;
51927;SDS011;37953;52.806;18.270;2024-01-15T10:01:48;18.35;;;6.53;;
51927;SDS011;37953;52.806;18.270;2024-01-15T10:04:16;23.80;;;7.10;;
51927;SDS011;37953;52.806;18.270;2024-01-15T10:06:43;18.15;;;5.97;;
51927;SDS011;37953;52.806;18.270;2024-01-15T10:09:24;16.67;;;7.00;;
51927;SDS011;37953;52.806;18.270;2024-01-15T10:11:49;14.80;;;6.38;;
51927;SDS011;37953;52.806;18.270;2024-01-15T10:14:15;16.42;;;6.65;;
51927;SDS011;37953;52.806;18.270;2024-01-15T10:16:41;16.35;;;6.50;;
51927;SDS011;37953;52.806;18.270;2024-01-15T10:19:08;14.70;;;5.38;;
51927;SDS011;37953;52.806;18.270;2024-01-15T10:21:34;19.10;;;7.00;;
51927;SDS011;37953;52.806;18.270;2024-01-15T10:24:01;17.70;;;6.70;;
51927;SDS011;37953;52.806;18.270;2024-01-15T10:26:28;17.60;;;6.78;;
51927;SDS011;37953;52.806;18.270;2024-01-15T10:28:55;17.98;;;7.78;;
51927;SDS011;37953;52.806;18.270;2024-01-15T10:31:24;20.98;;;7.72;;
51927;SDS011;37953;52.806;18.270;2024-01-15T10:33:51;17.30;;;7.47;;
51927;SDS011;37953;52.806;18.270;2024-01-15T10:36:17;18.40;;;8.23;;
51927;SDS011;37953;52.806;18.270;2024-01-15T10:38:44;16.80;;;7.50;;
51927;SDS011;37953;52.806;18.270;2024-01-15T10:41:16;14.50;;;6.30;;
51927;SDS011;37953;52.806;18.270;2024-01-15T10:43:42;14.35;;;6.70;;
51927;SDS011;37953;52.806;18.270;2024-01-15T10:46:08;17.35;;;7.18;;
51927;SDS011;37953;52.806;18.270;2024-01-15T10:48:34;18.58;;;7.53;;
51927;SDS011;37953;52.806;18.270;2024-01-15T10:51:01;15.10;;;6.78;;
51927;SDS011;37953;52.806;18.270;2024-01-15T10:53:39;18.08;;;7.55;;
51927;SDS011;37953;52.806;18.270;2024-01-15T10:56:07;15.82;;;6.93;;
51927;SDS011;37953;52.806;18.270;2024-01-15T10:58:37;18.90;;;7.97;;
51927;SDS011;37953;52.806;18.270;2024-01-15T11:01:10;17.48;;;6.55;;
51927;SDS011;37953;52.806;18.270;2024-01-15T11:03:37;11.35;;;4.68;;
51927;SDS011;37953;52.806;18.270;2024-01-15T11:06:03;13.55;;;4.50;;
51927;SDS011;37953;52.806;18.270;2024-01-15T11:08:51;12.40;;;4.82;;
51927;SDS011;37953;52.806;18.270;2024-01-15T11:11:18;12.57;;;5.22;;
51927;SDS011;37953;52.806;18.270;2024-01-15T11:13:47;13.15;;;5.55;;
51927;SDS011;37953;52.806;18.270;2024-01-15T11:16:16;12.63;;;4.57;;
51927;SDS011;37953;52.806;18.270;2024-01-15T11:18:42;15.15;;;4.35;;
51927;SDS011;37953;52.806;18.270;2024-01-15T11:21:22;19.73;;;7.57;;
51927;SDS011;37953;52.806;18.270;2024-01-15T11:24:00;21.55;;;5.47;;
51927;SDS011;37953;52.806;18.270;2024-01-15T11:26:27;11.43;;;3.72;;
51927;SDS011;37953;52.806;18.270;2024-01-15T11:29:08;10.98;;;3.78;;
51927;SDS011;37953;52.806;18.270;2024-01-15T11:34:08;12.77;;;4.20;;
51927;SDS011;37953;52.806;18.270;2024-01-15T11:41:58;10.48;;;3.65;;
51927;SDS011;37953;52.806;18.270;2024-01-15T11:44:25;8.90;;;2.78;;
51927;SDS011;37953;52.806;18.270;2024-01-15T11:47:02;14.60;;;3.90;;
51927;SDS011;37953;52.806;18.270;2024-01-15T11:52:15;17.77;;;7.72;;
51927;SDS011;37953;52.806;18.270;2024-01-15T11:57:49;11.95;;;3.42;;
51927;SDS011;37953;52.806;18.270;2024-01-15T12:00:21;7.72;;;2.58;;
51927;SDS011;37953;52.806;18.270;2024-01-15T12:02:48;13.98;;;2.83;;
51927;SDS011;37953;52.806;18.270;2024-01-15T12:05:23;9.38;;;2.70;;
51927;SDS011;37953;52.806;18.270;2024-01-15T12:07:49;11.60;;;3.10;;
51927;SDS011;37953;52.806;18.270;2024-01-15T12:10:17;12.82;;;3.05;;
51927;SDS011;37953;52.806;18.270;2024-01-15T12:15:23;15.05;;;4.90;;
51927;SDS011;37953;52.806;18.270;2024-01-15T12:17:56;13.65;;;4.28;;
51927;SDS011;37953;52.806;18.270;2024-01-15T12:20:24;10.23;;;4.05;;
51927;SDS011;37953;52.806;18.270;2024-01-15T12:22:50;14.13;;;4.57;;
51927;SDS011;37953;52.806;18.270;2024-01-15T12:25:16;15.55;;;3.70;;
51927;SDS011;37953;52.806;18.270;2024-01-15T12:27:42;13.85;;;3.20;;
51927;SDS011;37953;52.806;18.270;2024-01-15T12:30:12;12.85;;;2.92;;
51927;SDS011;37953;52.806;18.270;2024-01-15T12:32:41;11.23;;;2.92;;
51927;SDS011;37953;52.806;18.270;2024-01-15T12:35:09;15.05;;;3.58;;
51927;SDS011;37953;52.806;18.270;2024-01-15T12:37:42;20.23;;;3.53;;
51927;SDS011;37953;52.806;18.270;2024-01-15T12:40:09;15.63;;;4.03;;
51927;SDS011;37953;52.806;18.270;2024-01-15T12:42:44;11.65;;;3.60;;
51927;SDS011;37953;52.806;18.270;2024-01-15T12:45:11;11.05;;;3.45;;
51927;SDS011;37953;52.806;18.270;2024-01-15T12:47:41;20.23;;;4.20;;
51927;SDS011;37953;52.806;18.270;2024-01-15T12:50:08;10.40;;;2.90;;
51927;SDS011;37953;52.806;18.270;2024-01-15T12:52:40;11.10;;;3.10;;
51927;SDS011;37953;52.806;18.270;2024-01-15T12:55:07;31.50;;;4.57;;
51927;SDS011;37953;52.806;18.270;2024-01-15T12:57:34;13.15;;;3.75;;
51927;SDS011;37953;52.806;18.270;2024-01-15T13:00:01;10.98;;;3.78;;
51927;SDS011;37953;52.806;18.270;2024-01-15T13:02:32;16.60;;;4.30;;
51927;SDS011;37953;52.806;18.270;2024-01-15T13:04:59;20.25;;;4.32;;
51927;SDS011;37953;52.806;18.270;2024-01-15T13:07:31;15.20;;;4.13;;
51927;SDS011;37953;52.806;18.270;2024-01-15T13:09:57;26.83;;;5.28;;
51927;SDS011;37953;52.806;18.270;2024-01-15T13:12:23;21.98;;;5.57;;
51927;SDS011;37953;52.806;18.270;2024-01-15T13:14:49;16.08;;;4.40;;
51927;SDS011;37953;52.806;18.270;2024-01-15T13:17:15;12.30;;;4.10;;
51927;SDS011;37953;52.806;18.270;2024-01-15T13:19:42;11.15;;;3.17;;
51927;SDS011;37953;52.806;18.270;2024-01-15T13:22:08;9.88;;;2.55;;
51927;SDS011;37953;52.806;18.270;2024-01-15T13:24:37;10.55;;;2.47;;
51927;SDS011;37953;52.806;18.270;2024-01-15T13:27:06;9.77;;;2.83;;
51927;SDS011;37953;52.806;18.270;2024-01-15T13:29:32;13.20;;;3.55;;
51927;SDS011;37953;52.806;18.270;2024-01-15T13:31:59;11.13;;;2.45;;
51927;SDS011;37953;52.806;18.270;2024-01-15T13:34:25;10.00;;;2.90;;
51927;SDS011;37953;52.806;18.270;2024-01-15T13:36:51;12.57;;;2.83;;
51927;SDS011;37953;52.806;18.270;2024-01-15T13:39:19;12.57;;;3.13;;
51927;SDS011;37953;52.806;18.270;2024-01-15T13:41:49;16.10;;;3.53;;
51927;SDS011;37953;52.806;18.270;2024-01-15T13:44:15;8.77;;;2.40;;
51927;SDS011;37953;52.806;18.270;2024-01-15T13:46:41;9.13;;;2.53;;
51927;SDS011;37953;52.806;18.270;2024-01-15T13:49:07;12.20;;;2.40;;
51927;SDS011;37953;52.806;18.270;2024-01-15T13:51:35;9.95;;;3.00;;
51927;SDS011;37953;52.806;18.270;2024-01-15T13:54:02;8.50;;;2.42;;
51927;SDS011;37953;52.806;18.270;2024-01-15T13:56:30;9.35;;;2.40;;
51927;SDS011;37953;52.806;18.270;2024-01-15T13:58:58;7.82;;;2.55;;
51927;SDS011;37953;52.806;18.270;2024-01-15T14:01:24;12.80;;;3.63;;
51927;SDS011;37953;52.806;18.270;2024-01-15T14:03:51;11.05;;;2.85;;
51927;SDS011;37953;52.806;18.270;2024-01-15T14:06:17;6.80;;;2.55;;
51927;SDS011;37953;52.806;18.270;2024-01-15T14:08:43;11.13;;;2.70;;
51927;SDS011;37953;52.806;18.270;2024-01-15T14:11:09;11.95;;;2.63;;
51927;SDS011;37953;52.806;18.270;2024-01-15T14:13:35;13.05;;;3.30;;
51927;SDS011;37953;52.806;18.270;2024-01-15T14:16:01;11.40;;;3.13;;
51927;SDS011;37953;52.806;18.270;2024-01-15T14:18:27;11.27;;;2.63;;
51927;SDS011;37953;52.806;18.270;2024-01-15T14:20:53;13.45;;;2.70;;
51927;SDS011;37953;52.806;18.270;2024-01-15T14:23:20;11.95;;;3.03;;
51927;SDS011;37953;52.806;18.270;2024-01-15T14:25:46;16.33;;;3.35;;
51927;SDS011;37953;52.806;18.270;2024-01-15T14:28:12;10.50;;;3.25;;
51927;SDS011;37953;52.806;18.270;2024-01-15T14:30:38;12.20;;;3.75;;
51927;SDS011;37953;52.806;18.270;2024-01-15T14:33:04;13.05;;;4.18;;
51927;SDS011;37953;52.806;18.270;2024-01-15T14:35:30;14.85;;;4.10;;
51927;SDS011;37953;52.806;18.270;2024-01-15T14:37:56;8.98;;;3.22;;